Time;durP1;ratioP1;P1;durP2;ratioP2;P2;SDS_P1;SDS_P2;PMS_P1;PMS_P2;Temp;Humidity;BMP_temperature;BMP_pressure;BME280_temperature;BME280_humidity;BME280_pressure;Samples;Min_cycle;Max_cycle;Signal;HPM_P1;HPM_P2
2022/08/05 00:01:23;;;;;;;;;5.60;5.60;;;;;18.62;100.00;101099.19;6018450;23;44794;-88
2022/08/05 00:03:53;;;;;;;;;7.40;4.40;;;;;18.60;100.00;101113.78;5998351;23;45456;-91
2022/08/05 00:06:45;;;;;;;;;4.20;2.20;;;;;18.57;100.00;101122.16;6072812;23;44917;-89
2022/08/05 00:09:29;;;;;;;;;5.00;3.20;;;;;18.51;100.00;101177.38;6091595;23;46872;-89
2022/08/05 00:13:07;;;;;;;;;6.80;4.80;;;;;18.46;100.00;101271.13;6066874;23;44792;-88
2022/08/05 00:16:11;;;;;;;;;;;;;;;;;;;;;
2022/08/05 00:18:46;;;;;;;;;4.00;4.00;;;;;18.14;100.00;101319.78;6003940;23;70817;-88
2022/08/05 00:21:16;;;;;;;;;8.80;5.60;;;;;18.15;100.00;101318.81;6007090;23;45352;-89
2022/08/05 00:24:22;;;;;;;;;;;;;;;;;;;;;
2022/08/05 00:27:01;;;;;;;;;;;;;;;;;;;;;
2022/08/05 00:30:12;;;;;;;;;4.00;4.00;;;;;18.20;100.00;101297.72;5931065;24;69412;-88
2022/08/05 00:33:08;;;;;;;;;9.00;5.00;;;;;18.29;100.00;101314.88;5898542;24;45370;-88
2022/08/05 00:36:09;;;;;;;;;9.20;5.00;;;;;18.33;100.00;101217.63;5892043;24;45425;-89
2022/08/05 00:38:54;;;;;;;;;;;;;;;;;;;;;
2022/08/05 00:41:46;;;;;;;;;5.75;5.00;;;;;18.49;100.00;101360.50;5929984;24;68893;-89
2022/08/05 00:44:15;;;;;;;;;6.40;6.40;;;;;18.47;100.00;101393.94;5931745;24;45355;-90
2022/08/05 00:47:10;;;;;;;;;5.60;5.60;;;;;18.49;100.00;101365.03;5928893;24;44791;-89
2022/08/05 00:49:49;;;;;;;;;5.40;5.40;;;;;18.39;100.00;101292.38;5923737;24;44667;-87
2022/08/05 00:52:17;;;;;;;;;7.40;4.20;;;;;18.29;100.00;101279.91;6004160;23;44817;-87
2022/08/05 00:54:46;;;;;;;;;6.40;6.00;;;;;18.27;100.00;101271.94;6040764;23;45269;-87
2022/08/05 00:57:20;;;;;;;;;3.60;3.60;;;;;18.33;100.00;101268.72;6040795;23;44677;-87
2022/08/05 00:59:47;;;;;;;;;6.00;6.00;;;;;18.34;100.00;101280.34;6043575;23;45252;-88
2022/08/05 01:02:22;;;;;;;;;6.50;6.50;;;;;18.26;100.00;101359.03;6037687;23;45294;-87
2022/08/05 01:04:56;;;;;;;;;7.80;6.60;;;;;18.31;100.00;101353.22;6065188;23;45393;-87
2022/08/05 01:07:29;;;;;;;;;4.00;4.00;;;;;18.35;100.00;101285.56;6137945;23;45323;-87
2022/08/05 01:10:02;;;;;;;;;8.60;6.60;;;;;18.34;100.00;101245.38;6188738;23;44604;-86
2022/08/05 01:12:30;;;;;;;;;6.80;5.60;;;;;18.37;100.00;101223.53;6188466;23;45113;-87
2022/08/05 01:15:01;;;;;;;;;5.20;4.80;;;;;18.45;100.00;101299.88;6187470;23;45262;-86
2022/08/05 01:17:53;;;;;;;;;5.20;3.40;;;;;18.38;100.00;101338.25;6186882;23;45188;-89
2022/08/05 01:24:04;;;;;;;;;2.80;1.60;;;;;18.07;100.00;101306.03;6191861;23;44872;-89
2022/08/05 01:27:20;;;;;;;;;9.80;2.60;;;;;17.97;100.00;101359.78;6189595;23;45382;-89
2022/08/05 01:30:03;;;;;;;;;6.40;3.20;;;;;17.89;100.00;101313.03;6041901;23;45393;-89
2022/08/05 01:33:30;;;;;;;;;;;;;;;;;;;;;
2022/08/05 01:36:16;;;;;;;;;7.60;4.80;;;;;17.70;100.00;101211.69;6061187;23;44983;-89
2022/08/05 01:38:59;;;;;;;;;5.00;3.00;;;;;17.56;100.00;101218.28;6066337;23;46737;-90
2022/08/05 01:41:36;;;;;;;;;7.00;5.20;;;;;17.52;100.00;101207.94;6069652;23;44811;-90
2022/08/05 01:44:23;;;;;;;;;3.60;3.60;;;;;17.48;100.00;101208.22;6095442;23;44731;-90
2022/08/05 01:47:19;;;;;;;;;4.40;2.80;;;;;17.45;100.00;101272.97;6094778;23;44775;-91
2022/08/05 01:49:59;;;;;;;;;4.00;2.60;;;;;17.43;100.00;101252.59;6096250;23;45213;-90
2022/08/05 01:52:28;;;;;;;;;5.00;4.40;;;;;17.48;100.00;101290.63;6072015;23;44773;-90
2022/08/05 01:55:00;;;;;;;;;5.60;4.20;;;;;17.54;100.00;101300.84;6073401;23;44791;-90
2022/08/05 01:57:37;;;;;;;;;3.80;3.80;;;;;17.51;100.00;101260.81;6101745;23;44789;-90
2022/08/05 02:00:21;;;;;;;;;4.80;3.20;;;;;17.51;100.00;101254.63;6100507;23;45176;-94
2022/08/05 02:03:18;;;;;;;;;;;;;;;;;;;;;
2022/08/05 02:08:34;;;;;;;;;6.50;4.50;;;;;17.58;100.00;101296.06;6139449;22;45752;-90
2022/08/05 02:11:31;;;;;;;;;4.40;3.00;;;;;17.55;100.00;101277.50;6222143;22;45292;-90
2022/08/05 02:14:10;;;;;;;;;8.20;6.20;;;;;17.59;100.00;101295.06;6218951;22;44801;-89
2022/08/05 02:16:49;;;;;;;;;5.60;4.80;;;;;17.62;100.00;101300.19;6216979;22;44698;-89
2022/08/05 02:19:54;;;;;;;;;7.50;6.25;;;;;17.66;100.00;101288.19;6191783;22;45386;-90
2022/08/05 02:22:51;;;;;;;;;6.60;4.00;;;;;17.71;100.00;101288.63;6190662;22;46102;-90
2022/08/05 02:25:23;;;;;;;;;7.00;5.00;;;;;17.78;100.00;101280.91;6218364;22;45109;-89
2022/08/05 02:27:53;;;;;;;;;8.00;5.80;;;;;17.79;100.00;101301.41;6218965;22;44830;-89
2022/08/05 02:30:23;;;;;;;;;4.00;4.00;;;;;17.71;100.00;101312.81;6191053;22;44806;-89
2022/08/05 02:32:53;;;;;;;;;6.00;3.00;;;;;17.71;100.00;101308.28;6194154;22;46471;-89
2022/08/05 02:35:27;;;;;;;;;6.80;5.00;;;;;17.67;100.00;101320.28;6223670;22;44764;-90
2022/08/05 02:38:00;;;;;;;;;6.00;5.60;;;;;17.64;100.00;101320.53;6205013;22;44628;-89
2022/08/05 02:40:27;;;;;;;;;4.50;4.00;;;;;17.60;100.00;101294.06;6207405;22;44929;-89
2022/08/05 02:42:58;;;;;;;;;6.60;4.40;;;;;17.55;100.00;101305.25;6233212;22;45312;-89
2022/08/05 02:45:29;;;;;;;;;6.60;4.00;;;;;17.54;100.00;101310.75;6233960;22;44770;-88
2022/08/05 02:48:00;;;;;;;;;8.80;5.20;;;;;17.55;100.00;101207.66;6196064;22;44807;-89
2022/08/05 02:50:36;;;;;;;;;6.60;5.20;;;;;17.52;100.00;101224.06;6231539;22;45179;-91
2022/08/05 02:53:02;;;;;;;;;4.00;2.40;;;;;17.47;100.00;101249.50;6204230;22;46503;-90
2022/08/05 02:55:30;;;;;;;;;7.20;6.20;;;;;17.49;100.00;101252.03;6226271;22;45168;-90
2022/08/05 02:58:01;;;;;;;;;6.60;6.00;;;;;17.50;100.00;101252.88;6196518;22;44707;-90
2022/08/05 03:00:38;;;;;;;;;6.00;4.50;;;;;17.46;100.00;101247.81;6217840;22;45454;-90
2022/08/05 03:03:08;;;;;;;;;5.80;3.20;;;;;17.53;100.00;101266.91;6215676;22;45070;-89
2022/08/05 03:05:34;;;;;;;;;6.60;6.60;;;;;17.47;100.00;101272.81;6217118;22;44674;-89
2022/08/05 03:08:01;;;;;;;;;6.20;4.80;;;;;17.48;100.00;101287.94;6214916;22;44673;-89
2022/08/05 03:10:27;;;;;;;;;4.80;4.00;;;;;17.50;100.00;101291.34;6189554;22;44741;-89
2022/08/05 03:12:53;;;;;;;;;7.80;4.40;;;;;17.55;100.00;101309.75;6189815;22;46821;-89
2022/08/05 03:15:22;;;;;;;;;7.50;6.50;;;;;17.46;100.00;101296.16;6218192;22;44801;-89
2022/08/05 03:17:47;;;;;;;;;5.00;5.00;;;;;17.40;100.00;101293.97;6187378;22;44813;-88
2022/08/05 03:20:15;;;;;;;;;9.50;6.25;;;;;17.38;100.00;101282.53;6215615;22;44737;-92
2022/08/05 03:22:44;;;;;;;;;7.20;5.00;;;;;17.39;100.00;101253.84;6194235;22;45049;-92
2022/08/05 03:25:10;;;;;;;;;4.20;4.20;;;;;17.46;100.00;101292.63;6223042;22;44773;-92
2022/08/05 03:27:44;;;;;;;;;4.80;4.00;;;;;17.45;100.00;101280.16;6192239;22;44846;-92
2022/08/05 03:30:11;;;;;;;;;7.00;7.00;;;;;17.48;100.00;101285.25;6192384;22;44808;-92
2022/08/05 03:32:37;;;;;;;;;6.00;4.00;;;;;17.47;100.00;101281.72;6220441;22;45274;-93
2022/08/05 03:35:04;;;;;;;;;5.60;5.60;;;;;17.50;100.00;101285.13;6217475;22;45258;-89
2022/08/05 03:37:30;;;;;;;;;4.60;1.40;;;;;17.49;100.00;101286.97;6191647;22;45164;-89
2022/08/05 03:40:02;;;;;;;;;9.50;5.00;;;;;17.48;100.00;101293.31;6220893;22;45139;-88
2022/08/05 03:42:29;;;;;;;;;4.25;4.25;;;;;17.45;100.00;101297.16;6223275;22;45028;-88
2022/08/05 03:44:54;;;;;;;;;1.60;0.60;;;;;17.35;100.00;101288.16;6199189;22;44795;-87
2022/08/05 03:47:20;;;;;;;;;5.25;5.25;;;;;17.36;100.00;101295.25;6223445;22;44737;-88
2022/08/05 03:49:46;;;;;;;;;8.25;4.00;;;;;17.35;100.00;101295.38;6217539;22;44806;-88
2022/08/05 03:52:21;;;;;;;;;6.00;6.00;;;;;17.42;100.00;101299.25;6222353;22;45093;-88
2022/08/05 03:54:57;;;;;;;;;4.60;4.40;;;;;17.40;100.00;101298.50;6196418;22;45189;-88
2022/08/05 03:57:28;;;;;;;;;4.00;4.00;;;;;17.43;100.00;101307.16;6217884;22;45288;-88
2022/08/05 04:00:15;;;;;;;;;7.00;5.75;;;;;17.44;100.00;101302.63;6188514;22;44791;-87
2022/08/05 04:02:44;;;;;;;;;2.00;2.00;;;;;17.41;100.00;101289.47;6193638;22;45046;-87
2022/08/05 04:05:11;;;;;;;;;5.00;5.00;;;;;17.40;100.00;101275.19;6221406;22;44722;-87
2022/08/05 04:07:39;;;;;;;;;3.80;3.00;;;;;17.40;100.00;101264.44;6216947;22;45274;-87
2022/08/05 04:10:05;;;;;;;;;7.00;4.40;;;;;17.44;100.00;101279.31;6216473;22;45144;-87
2022/08/05 04:12:31;;;;;;;;;4.40;4.40;;;;;17.46;100.00;101285.41;6187683;22;45284;-88
2022/08/05 04:14:58;;;;;;;;;6.50;6.50;;;;;17.48;100.00;101293.31;6218374;22;44632;-87
2022/08/05 04:17:23;;;;;;;;;5.20;5.20;;;;;17.45;100.00;101282.84;6219490;22;45069;-87
2022/08/05 04:19:49;;;;;;;;;6.50;5.00;;;;;17.46;100.00;101290.78;6228180;22;45324;-91
2022/08/05 04:22:15;;;;;;;;;6.75;5.50;;;;;17.47;100.00;101297.00;6204553;22;46662;-92
2022/08/05 04:24:50;;;;;;;;;6.00;2.50;;;;;17.44;100.00;101291.88;6201019;22;44774;-91
2022/08/05 04:27:22;;;;;;;;;7.00;3.60;;;;;17.42;100.00;101299.25;6193242;22;44742;-91
2022/08/05 04:29:51;;;;;;;;;5.50;5.50;;;;;17.39;100.00;101291.44;6221907;22;44627;-91
2022/08/05 04:32:16;;;;;;;;;4.00;4.00;;;;;17.37;100.00;101286.22;6200007;22;45037;-91
2022/08/05 04:34:42;;;;;;;;;4.25;4.25;;;;;17.35;100.00;101285.47;6224844;22;44762;-91
2022/08/05 04:37:07;;;;;;;;;11.50;7.25;;;;;17.35;100.00;101280.09;6197201;22;44730;-91
2022/08/05 04:39:33;;;;;;;;;6.00;6.00;;;;;17.36;100.00;101286.34;6199548;22;44802;-91
2022/08/05 04:41:59;;;;;;;;;4.00;4.00;;;;;17.37;100.00;101275.47;6227364;22;44895;-90
2022/08/05 04:44:25;;;;;;;;;5.00;5.00;;;;;17.34;100.00;101274.88;6226240;22;44596;-91
2022/08/05 04:46:50;;;;;;;;;5.25;4.00;;;;;17.37;100.00;101282.66;6189424;22;44610;-90
2022/08/05 04:49:19;;;;;;;;;6.50;6.50;;;;;17.39;100.00;101292.28;6188909;22;45217;-91
2022/08/05 04:51:45;;;;;;;;;5.80;4.80;;;;;17.36;100.00;101294.41;6188023;22;45354;-91
2022/08/05 04:54:10;;;;;;;;;8.00;6.50;;;;;17.36;100.00;101294.41;6189455;22;44760;-90
2022/08/05 04:56:36;;;;;;;;;5.75;5.75;;;;;17.33;100.00;101292.81;6194571;22;44697;-91
2022/08/05 04:59:02;;;;;;;;;8.50;5.75;;;;;17.41;100.00;101298.38;6190332;22;44881;-91
2022/08/05 05:01:27;;;;;;;;;7.25;6.75;;;;;17.43;100.00;101303.63;6217108;22;45377;-91
2022/08/05 05:03:56;;;;;;;;;5.75;5.75;;;;;17.45;100.00;101304.31;6216686;22;44714;-90
2022/08/05 05:06:22;;;;;;;;;10.60;3.80;;;;;17.47;100.00;101310.44;6190251;22;45096;-91
2022/08/05 05:08:50;;;;;;;;;5.25;4.25;;;;;17.51;100.00;101302.97;6222183;22;44821;-91
2022/08/05 05:11:26;;;;;;;;;6.40;5.00;;;;;17.58;100.00;101304.97;6233265;22;45429;-90
2022/08/05 05:13:52;;;;;;;;;6.40;5.00;;;;;17.63;100.00;101305.41;6211568;22;44755;-90
2022/08/05 05:16:17;;;;;;;;;5.25;5.25;;;;;17.69;100.00;101310.25;6225001;22;44666;-91
2022/08/05 05:18:43;;;;;;;;;8.50;7.25;;;;;17.73;100.00;101317.09;6192343;22;44851;-91
2022/08/05 05:21:09;;;;;;;;;6.00;4.50;;;;;17.78;100.00;101319.38;6195837;22;46722;-91
2022/08/05 05:23:34;;;;;;;;;7.00;7.00;;;;;17.86;100.00;101319.56;6225566;22;44745;-90
2022/08/05 05:26:00;;;;;;;;;5.75;5.75;;;;;17.88;100.00;101327.47;6225471;22;44786;-91
2022/08/05 05:28:25;;;;;;;;;10.50;8.75;;;;;17.93;100.00;101327.91;6197838;22;44857;-90
2022/08/05 05:30:51;;;;;;;;;8.75;8.00;;;;;17.93;100.00;101326.06;6190791;22;45165;-91
2022/08/05 05:33:17;;;;;;;;;10.75;9.25;;;;;18.01;100.00;101335.31;6216260;22;45341;-91
2022/08/05 05:35:45;;;;;;;;;9.50;8.00;;;;;18.00;100.00;101330.94;6218383;22;44701;-91
2022/08/05 05:38:11;;;;;;;;;10.50;7.25;;;;;18.03;100.00;101342.25;6194089;22;44755;-90
2022/08/05 05:40:37;;;;;;;;;8.20;6.40;;;;;18.01;100.00;101341.53;6218406;22;45260;-91
2022/08/05 05:43:03;;;;;;;;;6.75;6.75;;;;;17.90;100.00;101347.03;6221068;22;44696;-91
2022/08/05 05:45:29;;;;;;;;;8.00;6.60;;;;;17.93;100.00;101350.28;6227108;22;44576;-90
2022/08/05 05:47:57;;;;;;;;;7.00;4.00;;;;;17.93;100.00;101354.78;6220224;22;44813;-91
2022/08/05 05:50:22;;;;;;;;;7.00;5.00;;;;;18.05;100.00;101360.94;6191719;22;45233;-89
2022/08/05 05:52:48;;;;;;;;;5.00;5.00;;;;;18.10;100.00;101364.06;6190991;22;44650;-89
2022/08/05 05:55:16;;;;;;;;;5.50;4.00;;;;;18.06;100.00;101362.63;6214488;22;45301;-91
2022/08/05 05:57:43;;;;;;;;;4.50;4.25;;;;;18.12;100.00;101368.31;6188733;22;44868;-90
2022/08/05 06:00:13;;;;;;;;;8.40;6.00;;;;;18.11;100.00;101377.38;6188753;22;47426;-90
2022/08/05 06:02:39;;;;;;;;;5.40;5.40;;;;;18.02;100.00;101374.66;6219798;22;44719;-90
2022/08/05 06:05:10;;;;;;;;;3.25;3.25;;;;;18.01;100.00;101375.66;6190321;22;44746;-91
2022/08/05 06:07:37;;;;;;;;;6.50;5.25;;;;;18.05;100.00;101383.31;6217493;22;44818;-91
2022/08/05 06:10:05;;;;;;;;;5.00;5.00;;;;;18.18;100.00;101373.19;6171892;23;46832;-91
2022/08/05 06:12:30;;;;;;;;;8.60;6.00;;;;;18.32;100.00;101376.44;6196401;23;45366;-91
2022/08/05 06:14:55;;;;;;;;;5.00;5.00;;;;;18.41;100.00;101378.31;6165464;23;44723;-91
2022/08/05 06:17:21;;;;;;;;;5.00;5.00;;;;;18.46;100.00;101373.38;6192616;23;44670;-90
2022/08/05 06:19:47;;;;;;;;;7.25;5.00;;;;;18.29;100.00;101382.97;6162624;23;45162;-90
2022/08/05 06:22:23;;;;;;;;;6.25;5.25;;;;;18.12;100.00;101379.06;6189349;23;45187;-91
2022/08/05 06:24:49;;;;;;;;;3.80;3.80;;;;;17.97;100.00;101388.50;6163451;23;45222;-90
2022/08/05 06:27:16;;;;;;;;;7.00;5.00;;;;;17.94;100.00;101400.38;6164329;23;44838;-91
2022/08/05 06:29:42;;;;;;;;;5.40;4.00;;;;;17.95;100.00;101385.94;6167200;23;46752;-90
2022/08/05 06:32:09;;;;;;;;;3.00;3.00;;;;;18.23;100.00;101411.28;6171996;23;44741;-90
2022/08/05 06:34:35;;;;;;;;;6.80;5.40;;;;;18.35;100.00;101403.09;6183560;22;44695;-90
2022/08/05 06:37:01;;;;;;;;;7.50;6.75;;;;;18.48;100.00;101404.53;6209466;22;44935;-89
2022/08/05 06:39:26;;;;;;;;;6.25;5.00;;;;;18.62;100.00;101397.06;6203256;23;45248;-91
2022/08/05 06:41:52;;;;;;;;;6.00;4.75;;;;;18.87;100.00;101396.56;6175200;23;44659;-91
2022/08/05 06:44:17;;;;;;;;;7.00;5.00;;;;;19.03;100.00;101389.78;6201315;23;44723;-91
2022/08/05 06:46:43;;;;;;;;;8.50;5.75;;;;;19.24;100.00;101390.47;6171210;23;44803;-91
2022/08/05 06:49:08;;;;;;;;;5.75;5.00;;;;;19.31;100.00;101383.53;6195859;23;45436;-91
2022/08/05 06:51:34;;;;;;;;;5.75;5.00;;;;;19.60;100.00;101391.59;6190363;23;44755;-91
2022/08/05 06:54:01;;;;;;;;;5.00;4.50;;;;;19.76;100.00;101383.72;6188745;23;44621;-91
2022/08/05 06:56:27;;;;;;;;;10.20;7.20;;;;;19.73;100.00;101386.75;6160918;23;44731;-91
2022/08/05 06:58:56;;;;;;;;;6.60;5.20;;;;;19.72;100.00;101385.00;6166495;23;45306;-91
2022/08/05 07:01:47;;;;;;;;;7.40;5.40;;;;;19.91;100.00;101388.66;6196546;23;44714;-90
2022/08/05 07:04:12;;;;;;;;;4.80;2.00;;;;;20.22;100.00;101379.31;6164551;23;45134;-91
2022/08/05 07:06:38;;;;;;;;;8.50;5.50;;;;;20.45;100.00;101378.88;6158701;23;44946;-92
2022/08/05 07:09:04;;;;;;;;;5.00;5.00;;;;;20.64;100.00;101375.25;6170460;22;46440;-91
2022/08/05 07:11:29;;;;;;;;;5.50;5.50;;;;;20.54;100.00;101375.31;6188770;22;44869;-91
2022/08/05 07:16:48;;;;;;;;;6.00;4.00;;;;;20.75;100.00;101375.88;6221875;22;44718;-91
2022/08/05 07:19:20;;;;;;;;;6.40;5.40;;;;;20.84;100.00;101381.34;6229464;22;45235;-92
2022/08/05 07:21:48;;;;;;;;;5.40;4.40;;;;;20.64;100.00;101380.63;6175743;22;44532;-91
2022/08/05 07:24:14;;;;;;;;;5.00;5.00;;;;;20.62;100.00;101388.06;6194570;22;44582;-91
2022/08/05 07:26:43;;;;;;;;;4.80;4.80;;;;;20.55;100.00;101382.44;6194228;22;44722;-92
2022/08/05 07:29:08;;;;;;;;;9.20;5.20;;;;;20.64;100.00;101386.03;6193581;22;45330;-88
2022/08/05 07:31:35;;;;;;;;;7.00;6.25;;;;;20.76;100.00;101391.09;6220194;22;44591;-87
2022/08/05 07:34:01;;;;;;;;;9.20;7.80;;;;;20.82;100.00;101395.03;6227415;22;45159;-88
2022/08/05 07:36:27;;;;;;;;;7.40;6.80;;;;;20.70;100.00;101394.41;6203853;22;44770;-87
2022/08/05 07:38:53;;;;;;;;;7.50;5.00;;;;;20.69;100.00;101402.63;6219151;22;45205;-87
2022/08/05 07:41:20;;;;;;;;;8.20;5.80;;;;;20.88;100.00;101404.34;6216782;22;44778;-87
2022/08/05 07:43:46;;;;;;;;;7.40;6.40;;;;;20.85;100.00;101413.63;6218354;22;44863;-88
2022/08/05 07:46:12;;;;;;;;;8.00;6.25;;;;;20.81;100.00;101406.84;6216238;22;44836;-86
2022/08/05 07:48:37;;;;;;;;;5.00;4.00;;;;;20.77;100.00;101408.97;6217766;22;44991;-88
2022/08/05 07:51:03;;;;;;;;;7.50;6.75;;;;;20.72;100.00;101405.03;6219507;22;44726;-87
2022/08/05 07:53:28;;;;;;;;;5.50;5.50;;;;;20.96;100.00;101405.28;6223062;22;44736;-87
2022/08/05 07:55:54;;;;;;;;;6.25;4.25;;;;;20.94;100.00;101423.53;6222235;22;45213;-87
2022/08/05 07:58:19;;;;;;;;;8.25;6.50;;;;;21.07;100.00;101422.28;6190850;22;46196;-86
2022/08/05 08:00:46;;;;;;;;;6.50;5.25;;;;;21.27;100.00;101413.88;6193115;22;45251;-87
2022/08/05 08:03:12;;;;;;;;;8.40;6.60;;;;;21.29;100.00;101414.56;6193465;22;44815;-87
2022/08/05 08:05:41;;;;;;;;;9.00;9.00;;;;;21.18;100.00;101416.66;6218794;22;44774;-87
2022/08/05 08:08:06;;;;;;;;;5.00;5.00;;;;;21.27;100.00;101416.56;6185128;22;46620;-87
2022/08/05 08:10:32;;;;;;;;;6.00;6.00;;;;;21.47;100.00;101425.38;6213102;22;44857;-87
2022/08/05 08:12:57;;;;;;;;;9.50;8.00;;;;;21.62;100.00;101424.81;6214165;22;44734;-87
2022/08/05 08:15:23;;;;;;;;;12.00;9.50;;;;;21.42;100.00;101433.13;6213666;22;44833;-87
2022/08/05 08:17:48;;;;;;;;;9.25;9.25;;;;;21.27;100.00;101432.78;6214533;22;45313;-88
2022/08/05 08:20:14;;;;;;;;;7.75;6.00;;;;;21.36;100.00;101433.72;6215751;22;44682;-87
2022/08/05 08:22:39;;;;;;;;;7.25;4.25;;;;;21.57;100.00;101436.09;6220571;22;45182;-86
2022/08/05 08:25:05;;;;;;;;;15.50;11.00;;;;;21.46;100.00;101439.88;6232799;22;44849;-88
2022/08/05 08:27:31;;;;;;;;;9.60;9.00;;;;;21.43;100.00;101448.31;6211517;22;46453;-87
2022/08/05 08:29:57;;;;;;;;;9.75;5.25;;;;;21.43;100.00;101455.59;6219652;22;45121;-88
2022/08/05 08:32:23;;;;;;;;;11.00;7.75;;;;;21.39;100.00;101446.94;6192693;22;45205;-88
2022/08/05 08:34:48;;;;;;;;;6.00;6.00;;;;;21.56;100.00;101456.00;6223919;22;44616;-89
2022/08/05 08:37:14;;;;;;;;;7.00;6.50;;;;;21.64;100.00;101455.25;6225791;22;45522;-88
2022/08/05 08:39:40;;;;;;;;;8.80;4.80;;;;;21.62;100.00;101452.69;6194592;22;44714;-88
2022/08/05 08:42:07;;;;;;;;;5.00;5.00;;;;;21.64;100.00;101461.50;6224591;22;44770;-88
2022/08/05 08:44:34;;;;;;;;;7.40;5.80;;;;;21.67;100.00;101461.19;6223053;22;44697;-87
2022/08/05 08:47:02;;;;;;;;;9.40;8.20;;;;;21.66;100.00;101469.44;6220793;22;45395;-88
2022/08/05 08:49:32;;;;;;;;;6.20;6.00;;;;;21.69;100.00;101469.13;6217073;22;44650;-87
2022/08/05 08:52:04;;;;;;;;;5.80;5.80;;;;;21.79;100.00;101461.78;6217042;22;45298;-88
2022/08/05 08:54:30;;;;;;;;;7.40;5.00;;;;;21.54;100.00;101474.25;6191495;22;44873;-88
2022/08/05 08:56:57;;;;;;;;;5.00;3.50;;;;;21.44;100.00;101468.94;6189207;22;45414;-88
2022/08/05 08:59:23;;;;;;;;;7.60;7.60;;;;;21.50;100.00;101475.56;6214666;22;45282;-87
2022/08/05 09:01:53;;;;;;;;;7.80;4.80;;;;;21.65;100.00;101465.88;6215125;22;44670;-88
2022/08/05 09:04:19;;;;;;;;;6.00;6.00;;;;;21.59;100.00;101480.06;6187967;22;44794;-88
2022/08/05 09:06:44;;;;;;;;;7.60;7.60;;;;;21.60;100.00;101476.34;6190174;22;47131;-88
2022/08/05 09:09:10;;;;;;;;;8.75;5.50;;;;;21.64;100.00;101463.34;6217218;22;44773;-88
2022/08/05 09:11:37;;;;;;;;;5.50;5.25;;;;;21.84;100.00;101475.66;6194154;22;44769;-93
2022/08/05 09:14:03;;;;;;;;;6.40;5.80;;;;;21.90;100.00;101469.63;6236529;22;44842;-93
2022/08/05 09:16:32;;;;;;;;;4.75;4.75;;;;;21.75;100.00;101466.63;6215212;22;46379;-93
2022/08/05 09:18:57;;;;;;;;;5.00;5.00;;;;;21.69;100.00;101471.84;6216751;22;44568;-93
2022/08/05 09:21:23;;;;;;;;;11.50;7.50;;;;;21.87;100.00;101474.53;6207635;22;44552;-92
2022/08/05 09:24:07;;;;;;;;;7.75;7.75;;;;;21.91;100.00;101471.34;6206309;22;44888;-92
2022/08/05 09:26:34;;;;;;;;;8.40;5.80;;;;;22.01;100.00;101473.94;6197253;22;45281;-92
2022/08/05 09:29:03;;;;;;;;;6.60;6.60;;;;;22.11;100.00;101477.41;6195401;22;44697;-91
2022/08/05 09:31:30;;;;;;;;;6.00;6.00;;;;;22.20;100.00;101472.91;6192432;22;44652;-92
2022/08/05 09:33:58;;;;;;;;;10.00;6.40;;;;;22.19;100.00;101476.59;6197629;22;44765;-92
2022/08/05 09:36:41;;;;;;;;;8.00;7.20;;;;;22.04;100.00;101471.75;6201009;22;45253;-92
2022/08/05 09:39:10;;;;;;;;;9.20;7.80;;;;;22.09;100.00;101476.69;6203391;22;44541;-94
2022/08/05 09:42:02;;;;;;;;;8.20;7.40;;;;;22.18;100.00;101483.03;6203938;22;44667;-92
2022/08/05 09:44:48;;;;;;;;;8.40;7.80;;;;;22.37;100.00;101480.09;6204615;22;45698;-90
2022/08/05 09:47:18;;;;;;;;;5.60;4.20;;;;;22.52;100.00;101483.88;6227104;22;45148;-91
2022/08/05 09:49:49;;;;;;;;;9.20;7.20;;;;;22.57;100.00;101491.53;6196508;22;44616;-91
2022/08/05 09:52:20;;;;;;;;;8.80;8.60;;;;;22.38;100.00;101483.66;6221243;22;44691;-90
2022/08/05 09:54:54;;;;;;;;;5.00;3.60;;;;;22.55;100.00;101490.84;6232677;22;44663;-91
2022/08/05 09:57:32;;;;;;;;;12.80;9.80;;;;;22.86;100.00;101490.28;6237500;22;44958;-90
2022/08/05 09:59:59;;;;;;;;;4.60;3.40;;;;;22.84;100.00;101479.63;6199205;22;44595;-91
2022/08/05 10:02:34;;;;;;;;;9.60;8.60;;;;;22.88;100.00;101480.16;6199545;22;44729;-90
2022/08/05 10:05:08;;;;;;;;;9.40;6.80;;;;;22.80;100.00;101497.22;6225268;22;44793;-91
2022/08/05 10:07:55;;;;;;;;;9.20;9.20;;;;;22.72;100.00;101495.31;6195516;22;46851;-90
2022/08/05 10:10:45;;;;;;;;;11.20;10.60;;;;;22.83;100.00;101494.19;6227476;22;45352;-91
2022/08/05 10:13:11;;;;;;;;;11.40;9.40;;;;;23.03;100.00;101483.94;6200822;22;44604;-92
2022/08/05 10:15:40;;;;;;;;;12.20;11.00;;;;;22.98;100.00;101499.84;6204898;22;44850;-85
2022/08/05 10:18:15;;;;;;;;;11.60;10.20;;;;;22.81;100.00;101498.91;6230568;22;45287;-85
2022/08/05 10:20:47;;;;;;;;;10.60;8.80;;;;;22.79;100.00;101503.66;6225758;22;44760;-86
2022/08/05 10:23:17;;;;;;;;;10.80;10.60;;;;;23.13;100.00;101494.63;6214929;22;44655;-86
2022/08/05 10:25:42;;;;;;;;;11.80;11.00;;;;;23.60;100.00;101490.28;6214742;22;44747;-86
2022/08/05 10:28:09;;;;;;;;;12.75;11.25;;;;;23.82;100.00;101487.91;6215030;22;44942;-86
2022/08/05 10:30:36;;;;;;;;;12.80;11.60;;;;;23.68;100.00;101475.88;6216187;22;45080;-85
2022/08/05 10:33:02;;;;;;;;;14.00;12.40;;;;;23.20;100.00;101493.78;6215698;22;44682;-86
2022/08/05 10:35:28;;;;;;;;;9.80;9.80;;;;;23.38;100.00;101485.50;6188759;22;45426;-86
2022/08/05 10:37:54;;;;;;;;;11.25;9.75;;;;;23.59;100.00;101496.72;6188977;22;45707;-86
2022/08/05 10:40:44;;;;;;;;;14.00;12.00;;;;;23.41;100.00;101498.75;6217052;22;44771;-87
2022/08/05 10:43:30;;;;;;;;;6.20;6.20;;;;;23.43;100.00;101512.97;6225903;22;44635;-86
2022/08/05 10:46:05;;;;;;;;;8.40;5.80;;;;;23.63;100.00;101499.94;6220881;22;44620;-87
2022/08/05 10:48:40;;;;;;;;;8.20;6.20;;;;;23.91;100.00;101494.19;6191220;22;46684;-87
2022/08/05 10:51:09;;;;;;;;;10.40;10.00;;;;;24.10;100.00;101491.94;6219266;22;44726;-87
2022/08/05 10:53:42;;;;;;;;;12.40;12.20;;;;;24.32;100.00;101503.97;6196926;22;45437;-87
2022/08/05 10:56:13;;;;;;;;;13.00;10.00;;;;;24.54;100.00;101496.94;6224428;22;45311;-86
2022/08/05 10:58:48;;;;;;;;;8.80;6.60;;;;;24.72;100.00;101494.00;6228779;22;44926;-86
2022/08/05 11:01:14;;;;;;;;;8.20;7.00;;;;;24.71;100.00;101492.31;6227671;22;44582;-87
2022/08/05 11:04:05;;;;;;;;;8.00;6.75;;;;;25.24;100.00;101504.28;6225830;22;44600;-89
2022/08/05 11:06:55;;;;;;;;;8.20;7.00;;;;;25.24;100.00;101503.41;6203468;22;45366;-91
2022/08/05 11:09:29;;;;;;;;;9.00;8.40;;;;;25.21;100.00;101506.50;6212703;22;45354;-93
2022/08/05 11:11:56;;;;;;;;;4.20;4.20;;;;;25.16;100.00;101508.91;6209987;22;44529;-93
2022/08/05 11:14:37;;;;;;;;;7.00;5.80;;;;;25.38;100.00;101508.06;6213891;22;44613;-93
2022/08/05 11:17:29;;;;;;;;;7.40;7.00;;;;;25.67;100.00;101515.50;6210316;22;44698;-91
2022/08/05 11:19:57;;;;;;;;;9.80;7.20;;;;;25.73;100.00;101508.50;6211542;22;46788;-93
2022/08/05 11:22:53;;;;;;;;;6.00;6.00;;;;;25.87;100.00;101513.16;6213391;22;44732;-94
2022/08/05 11:25:45;;;;;;;;;8.20;7.00;;;;;25.53;100.00;101516.28;6227731;22;44718;-93
2022/08/05 11:28:10;;;;;;;;;7.00;6.00;;;;;25.25;100.00;101514.13;6198754;22;44870;-92
2022/08/05 11:30:55;;;;;;;;;7.75;6.50;;;;;25.07;100.00;101519.00;6219980;22;45326;-91
2022/08/05 11:33:40;;;;;;;;;8.40;7.40;;;;;25.19;100.00;101511.25;6191685;22;45212;-90
2022/08/05 11:36:09;;;;;;;;;7.20;6.00;;;;;25.38;100.00;101513.50;6192554;22;44675;-92
2022/08/05 11:38:40;;;;;;;;;10.20;7.80;;;;;25.10;100.00;101519.50;6223073;22;45145;-88
2022/08/05 11:41:14;;;;;;;;;5.20;5.20;;;;;25.24;100.00;101520.59;6221296;22;45228;-88
2022/08/05 11:43:43;;;;;;;;;8.40;5.20;;;;;25.22;100.00;101524.50;6221603;22;44711;-89
2022/08/05 11:46:09;;;;;;;;;7.00;5.40;;;;;25.32;96.77;101525.13;6194250;22;44815;-88
2022/08/05 11:48:40;;;;;;;;;9.25;7.75;;;;;25.38;97.25;101543.44;6188818;22;44883;-88
2022/08/05 11:51:06;;;;;;;;;5.00;5.00;;;;;25.54;97.01;101543.34;6185707;22;46533;-88
2022/08/05 11:53:33;;;;;;;;;10.20;8.80;;;;;25.69;97.41;101529.78;6213502;22;44728;-89
2022/08/05 11:56:01;;;;;;;;;8.00;7.00;;;;;25.88;97.58;101525.75;6164441;22;44650;-88